sensor_id;sensor_type;location;lat;lon;timestamp;P1;durP1;ratioP1;P2;durP2;ratioP2
65477;SDS011;53678;39.642;22.430;2022-11-15T00:02:20;54.10;;;31.80;;
65477;SDS011;53678;39.642;22.430;2022-11-15T00:05:05;59.78;;;34.60;;
65477;SDS011;53678;39.642;22.430;2022-11-15T00:07:50;55.17;;;33.25;;
65477;SDS011;53678;39.642;22.430;2022-11-15T00:10:34;52.40;;;30.80;;
65477;SDS011;53678;39.642;22.430;2022-11-15T00:13:19;57.63;;;34.58;;
65477;SDS011;53678;39.642;22.430;2022-11-15T00:16:04;55.38;;;31.88;;
65477;SDS011;53678;39.642;22.430;2022-11-15T00:18:49;51.90;;;29.38;;
65477;SDS011;53678;39.642;22.430;2022-11-15T00:21:34;48.55;;;30.92;;
65477;SDS011;53678;39.642;22.430;2022-11-15T00:24:19;46.85;;;29.08;;
65477;SDS011;53678;39.642;22.430;2022-11-15T00:27:03;45.78;;;29.08;;
65477;SDS011;53678;39.642;22.430;2022-11-15T00:29:47;47.53;;;30.80;;
65477;SDS011;53678;39.642;22.430;2022-11-15T00:32:32;43.90;;;28.65;;
65477;SDS011;53678;39.642;22.430;2022-11-15T00:35:16;49.17;;;29.48;;
65477;SDS011;53678;39.642;22.430;2022-11-15T00:38:01;43.10;;;28.73;;
65477;SDS011;53678;39.642;22.430;2022-11-15T00:40:47;44.17;;;27.92;;
65477;SDS011;53678;39.642;22.430;2022-11-15T00:43:32;46.10;;;29.35;;
65477;SDS011;53678;39.642;22.430;2022-11-15T00:46:17;46.65;;;30.88;;
65477;SDS011;53678;39.642;22.430;2022-11-15T00:49:02;52.50;;;32.38;;
65477;SDS011;53678;39.642;22.430;2022-11-15T00:51:46;61.38;;;33.85;;
65477;SDS011;53678;39.642;22.430;2022-11-15T00:54:31;57.58;;;33.83;;
65477;SDS011;53678;39.642;22.430;2022-11-15T00:57:15;53.53;;;32.22;;
65477;SDS011;53678;39.642;22.430;2022-11-15T01:00:00;55.08;;;33.45;;
65477;SDS011;53678;39.642;22.430;2022-11-15T01:02:44;56.15;;;30.42;;
65477;SDS011;53678;39.642;22.430;2022-11-15T01:05:29;50.95;;;30.42;;
65477;SDS011;53678;39.642;22.430;2022-11-15T01:08:16;46.55;;;28.88;;
65477;SDS011;53678;39.642;22.430;2022-11-15T01:11:02;52.50;;;29.67;;
65477;SDS011;53678;39.642;22.430;2022-11-15T01:13:48;54.17;;;30.05;;
65477;SDS011;53678;39.642;22.430;2022-11-15T01:16:32;47.75;;;27.02;;
65477;SDS011;53678;39.642;22.430;2022-11-15T01:19:17;43.90;;;27.65;;
65477;SDS011;53678;39.642;22.430;2022-11-15T01:22:02;46.90;;;28.13;;
65477;SDS011;53678;39.642;22.430;2022-11-15T01:24:48;43.03;;;26.80;;
65477;SDS011;53678;39.642;22.430;2022-11-15T01:27:34;48.05;;;26.88;;
65477;SDS011;53678;39.642;22.430;2022-11-15T01:30:18;41.92;;;26.55;;
65477;SDS011;53678;39.642;22.430;2022-11-15T01:33:03;40.25;;;24.45;;
65477;SDS011;53678;39.642;22.430;2022-11-15T01:35:47;37.70;;;22.50;;
65477;SDS011;53678;39.642;22.430;2022-11-15T01:38:32;39.22;;;23.25;;
65477;SDS011;53678;39.642;22.430;2022-11-15T01:41:18;32.90;;;22.27;;
65477;SDS011;53678;39.642;22.430;2022-11-15T01:47:29;39.25;;;23.67;;
65477;SDS011;53678;39.642;22.430;2022-11-15T01:50:26;35.38;;;24.02;;
65477;SDS011;53678;39.642;22.430;2022-11-15T01:53:16;40.33;;;23.73;;
65477;SDS011;53678;39.642;22.430;2022-11-15T01:56:04;34.38;;;22.75;;
65477;SDS011;53678;39.642;22.430;2022-11-15T01:58:52;39.40;;;23.20;;
65477;SDS011;53678;39.642;22.430;2022-11-15T02:01:39;44.47;;;23.30;;
65477;SDS011;53678;39.642;22.430;2022-11-15T02:04:26;39.10;;;23.88;;
65477;SDS011;53678;39.642;22.430;2022-11-15T02:07:16;45.22;;;24.73;;
65477;SDS011;53678;39.642;22.430;2022-11-15T02:10:10;44.55;;;24.63;;
65477;SDS011;53678;39.642;22.430;2022-11-15T02:12:57;39.38;;;23.55;;
65477;SDS011;53678;39.642;22.430;2022-11-15T02:19:01;45.25;;;26.13;;
65477;SDS011;53678;39.642;22.430;2022-11-15T02:37:36;41.25;;;24.23;;
65477;SDS011;53678;39.642;22.430;2022-11-15T02:40:35;40.67;;;25.38;;
65477;SDS011;53678;39.642;22.430;2022-11-15T02:43:39;42.17;;;25.58;;
65477;SDS011;53678;39.642;22.430;2022-11-15T02:46:41;48.77;;;27.20;;
65477;SDS011;53678;39.642;22.430;2022-11-15T02:50:10;42.72;;;27.88;;
65477;SDS011;53678;39.642;22.430;2022-11-15T02:52:56;41.17;;;24.83;;
65477;SDS011;53678;39.642;22.430;2022-11-15T02:55:45;42.83;;;26.48;;
65477;SDS011;53678;39.642;22.430;2022-11-15T03:13:44;37.85;;;25.17;;
65477;SDS011;53678;39.642;22.430;2022-11-15T03:16:34;40.72;;;25.60;;
65477;SDS011;53678;39.642;22.430;2022-11-15T03:19:27;41.42;;;27.27;;
65477;SDS011;53678;39.642;22.430;2022-11-15T03:22:17;38.38;;;25.60;;
65477;SDS011;53678;39.642;22.430;2022-11-15T03:25:06;43.03;;;26.30;;
65477;SDS011;53678;39.642;22.430;2022-11-15T03:27:55;37.83;;;26.17;;
65477;SDS011;53678;39.642;22.430;2022-11-15T03:30:41;39.95;;;24.38;;
65477;SDS011;53678;39.642;22.430;2022-11-15T03:33:27;38.42;;;24.63;;
65477;SDS011;53678;39.642;22.430;2022-11-15T03:36:13;35.60;;;23.55;;
65477;SDS011;53678;39.642;22.430;2022-11-15T03:39:00;39.38;;;24.58;;
65477;SDS011;53678;39.642;22.430;2022-11-15T03:48:05;38.13;;;24.63;;
65477;SDS011;53678;39.642;22.430;2022-11-15T03:50:57;40.55;;;23.45;;
65477;SDS011;53678;39.642;22.430;2022-11-15T03:53:41;39.75;;;23.95;;
65477;SDS011;53678;39.642;22.430;2022-11-15T03:56:26;40.83;;;24.33;;
65477;SDS011;53678;39.642;22.430;2022-11-15T03:59:11;41.90;;;25.88;;
65477;SDS011;53678;39.642;22.430;2022-11-15T04:01:55;46.85;;;24.83;;
65477;SDS011;53678;39.642;22.430;2022-11-15T04:04:40;42.72;;;25.95;;
65477;SDS011;53678;39.642;22.430;2022-11-15T04:07:24;43.17;;;25.83;;
65477;SDS011;53678;39.642;22.430;2022-11-15T04:10:09;47.67;;;26.77;;
65477;SDS011;53678;39.642;22.430;2022-11-15T04:12:55;49.05;;;26.75;;
65477;SDS011;53678;39.642;22.430;2022-11-15T04:15:39;49.90;;;28.02;;
65477;SDS011;53678;39.642;22.430;2022-11-15T04:18:24;45.42;;;25.10;;
65477;SDS011;53678;39.642;22.430;2022-11-15T04:21:09;45.65;;;25.63;;
65477;SDS011;53678;39.642;22.430;2022-11-15T04:24:12;45.13;;;25.75;;
65477;SDS011;53678;39.642;22.430;2022-11-15T04:26:57;42.55;;;26.40;;
65477;SDS011;53678;39.642;22.430;2022-11-15T04:29:42;46.08;;;25.40;;
65477;SDS011;53678;39.642;22.430;2022-11-15T04:32:26;47.25;;;27.73;;
65477;SDS011;53678;39.642;22.430;2022-11-15T04:35:11;48.20;;;25.88;;
65477;SDS011;53678;39.642;22.430;2022-11-15T04:37:56;48.47;;;27.42;;
65477;SDS011;53678;39.642;22.430;2022-11-15T04:40:41;48.55;;;27.00;;
65477;SDS011;53678;39.642;22.430;2022-11-15T04:43:25;48.17;;;26.95;;
65477;SDS011;53678;39.642;22.430;2022-11-15T04:46:10;42.95;;;24.65;;
65477;SDS011;53678;39.642;22.430;2022-11-15T04:48:54;45.97;;;24.77;;
65477;SDS011;53678;39.642;22.430;2022-11-15T04:51:39;42.30;;;24.80;;
65477;SDS011;53678;39.642;22.430;2022-11-15T04:54:24;41.10;;;23.02;;
65477;SDS011;53678;39.642;22.430;2022-11-15T04:57:08;51.38;;;23.60;;
65477;SDS011;53678;39.642;22.430;2022-11-15T04:59:53;45.05;;;23.50;;
65477;SDS011;53678;39.642;22.430;2022-11-15T05:02:37;44.58;;;23.33;;
65477;SDS011;53678;39.642;22.430;2022-11-15T05:05:40;44.50;;;25.48;;
65477;SDS011;53678;39.642;22.430;2022-11-15T05:08:25;42.03;;;23.30;;
65477;SDS011;53678;39.642;22.430;2022-11-15T05:11:10;44.33;;;24.05;;
65477;SDS011;53678;39.642;22.430;2022-11-15T05:13:54;44.67;;;25.67;;
65477;SDS011;53678;39.642;22.430;2022-11-15T05:16:39;42.75;;;24.80;;
65477;SDS011;53678;39.642;22.430;2022-11-15T05:19:24;44.42;;;25.73;;
65477;SDS011;53678;39.642;22.430;2022-11-15T05:22:09;51.47;;;27.60;;
65477;SDS011;53678;39.642;22.430;2022-11-15T05:24:53;42.17;;;24.83;;
65477;SDS011;53678;39.642;22.430;2022-11-15T05:27:38;46.03;;;25.95;;
65477;SDS011;53678;39.642;22.430;2022-11-15T05:30:22;39.17;;;25.02;;
65477;SDS011;53678;39.642;22.430;2022-11-15T05:33:07;38.75;;;25.10;;
65477;SDS011;53678;39.642;22.430;2022-11-15T05:35:54;42.50;;;25.85;;
65477;SDS011;53678;39.642;22.430;2022-11-15T05:39:07;44.58;;;27.20;;
65477;SDS011;53678;39.642;22.430;2022-11-15T05:41:55;40.83;;;23.05;;
65477;SDS011;53678;39.642;22.430;2022-11-15T05:44:52;30.42;;;19.45;;
65477;SDS011;53678;39.642;22.430;2022-11-15T05:47:36;31.08;;;19.20;;
65477;SDS011;53678;39.642;22.430;2022-11-15T05:50:23;29.17;;;19.73;;
65477;SDS011;53678;39.642;22.430;2022-11-15T05:53:07;36.92;;;21.70;;
65477;SDS011;53678;39.642;22.430;2022-11-15T05:55:54;35.97;;;21.15;;
65477;SDS011;53678;39.642;22.430;2022-11-15T05:58:38;39.78;;;22.45;;
65477;SDS011;53678;39.642;22.430;2022-11-15T06:01:24;39.38;;;22.13;;
65477;SDS011;53678;39.642;22.430;2022-11-15T06:04:10;40.88;;;22.08;;
65477;SDS011;53678;39.642;22.430;2022-11-15T06:06:54;36.35;;;22.02;;
65477;SDS011;53678;39.642;22.430;2022-11-15T06:09:39;43.22;;;24.48;;
65477;SDS011;53678;39.642;22.430;2022-11-15T06:12:23;45.45;;;25.95;;
65477;SDS011;53678;39.642;22.430;2022-11-15T06:15:08;58.60;;;29.23;;
65477;SDS011;53678;39.642;22.430;2022-11-15T06:17:55;42.58;;;24.60;;
65477;SDS011;53678;39.642;22.430;2022-11-15T06:20:41;46.17;;;24.00;;
65477;SDS011;53678;39.642;22.430;2022-11-15T06:23:26;38.83;;;22.95;;
65477;SDS011;53678;39.642;22.430;2022-11-15T06:26:11;37.15;;;22.65;;
65477;SDS011;53678;39.642;22.430;2022-11-15T06:28:56;40.67;;;22.30;;
65477;SDS011;53678;39.642;22.430;2022-11-15T06:31:40;38.70;;;23.75;;
65477;SDS011;53678;39.642;22.430;2022-11-15T06:34:25;41.17;;;23.10;;
65477;SDS011;53678;39.642;22.430;2022-11-15T06:37:09;47.65;;;23.50;;
65477;SDS011;53678;39.642;22.430;2022-11-15T06:39:54;53.35;;;24.80;;
65477;SDS011;53678;39.642;22.430;2022-11-15T06:42:39;43.75;;;24.30;;
65477;SDS011;53678;39.642;22.430;2022-11-15T06:45:23;40.75;;;23.13;;
65477;SDS011;53678;39.642;22.430;2022-11-15T06:48:08;45.08;;;23.63;;
65477;SDS011;53678;39.642;22.430;2022-11-15T06:50:53;47.58;;;23.38;;
65477;SDS011;53678;39.642;22.430;2022-11-15T06:53:39;35.28;;;21.52;;
65477;SDS011;53678;39.642;22.430;2022-11-15T06:56:23;32.17;;;20.98;;
65477;SDS011;53678;39.642;22.430;2022-11-15T06:59:07;39.88;;;22.52;;
65477;SDS011;53678;39.642;22.430;2022-11-15T07:01:52;39.28;;;22.52;;
65477;SDS011;53678;39.642;22.430;2022-11-15T07:04:36;31.15;;;20.42;;
65477;SDS011;53678;39.642;22.430;2022-11-15T07:07:21;38.42;;;19.80;;
65477;SDS011;53678;39.642;22.430;2022-11-15T07:10:06;46.97;;;22.60;;
65477;SDS011;53678;39.642;22.430;2022-11-15T07:12:52;39.35;;;21.15;;
65477;SDS011;53678;39.642;22.430;2022-11-15T07:15:37;40.03;;;23.02;;
65477;SDS011;53678;39.642;22.430;2022-11-15T07:18:21;40.63;;;22.17;;
65477;SDS011;53678;39.642;22.430;2022-11-15T07:21:07;40.50;;;23.55;;
65477;SDS011;53678;39.642;22.430;2022-11-15T07:23:53;49.90;;;24.13;;
65477;SDS011;53678;39.642;22.430;2022-11-15T07:26:39;51.25;;;27.83;;
65477;SDS011;53678;39.642;22.430;2022-11-15T07:29:23;45.35;;;27.65;;
65477;SDS011;53678;39.642;22.430;2022-11-15T07:32:08;56.17;;;28.17;;
65477;SDS011;53678;39.642;22.430;2022-11-15T07:34:54;48.13;;;28.75;;
65477;SDS011;53678;39.642;22.430;2022-11-15T07:37:39;55.00;;;30.23;;
65477;SDS011;53678;39.642;22.430;2022-11-15T07:40:24;51.55;;;28.23;;
65477;SDS011;53678;39.642;22.430;2022-11-15T07:43:09;47.75;;;28.23;;
65477;SDS011;53678;39.642;22.430;2022-11-15T07:45:53;53.60;;;27.95;;
65477;SDS011;53678;39.642;22.430;2022-11-15T07:48:38;50.17;;;26.98;;
65477;SDS011;53678;39.642;22.430;2022-11-15T07:51:23;46.42;;;27.27;;
65477;SDS011;53678;39.642;22.430;2022-11-15T07:54:08;51.53;;;28.65;;
65477;SDS011;53678;39.642;22.430;2022-11-15T07:56:52;43.65;;;26.90;;
65477;SDS011;53678;39.642;22.430;2022-11-15T07:59:37;41.13;;;26.10;;
65477;SDS011;53678;39.642;22.430;2022-11-15T08:02:22;41.50;;;26.00;;
65477;SDS011;53678;39.642;22.430;2022-11-15T08:05:06;44.88;;;26.48;;
65477;SDS011;53678;39.642;22.430;2022-11-15T08:07:51;49.20;;;29.00;;
65477;SDS011;53678;39.642;22.430;2022-11-15T08:10:35;50.60;;;27.45;;
65477;SDS011;53678;39.642;22.430;2022-11-15T08:13:21;40.33;;;25.52;;
65477;SDS011;53678;39.642;22.430;2022-11-15T08:16:05;44.05;;;27.58;;
65477;SDS011;53678;39.642;22.430;2022-11-15T08:18:50;45.67;;;27.05;;
65477;SDS011;53678;39.642;22.430;2022-11-15T08:21:35;47.42;;;26.80;;
65477;SDS011;53678;39.642;22.430;2022-11-15T08:24:21;46.10;;;24.98;;
65477;SDS011;53678;39.642;22.430;2022-11-15T08:27:05;40.33;;;25.48;;
65477;SDS011;53678;39.642;22.430;2022-11-15T08:29:58;38.33;;;24.13;;
65477;SDS011;53678;39.642;22.430;2022-11-15T08:32:42;41.20;;;24.73;;
65477;SDS011;53678;39.642;22.430;2022-11-15T08:35:27;36.15;;;24.60;;
65477;SDS011;53678;39.642;22.430;2022-11-15T08:38:12;43.03;;;25.77;;
65477;SDS011;53678;39.642;22.430;2022-11-15T08:41:01;39.95;;;23.60;;
65477;SDS011;53678;39.642;22.430;2022-11-15T08:43:48;36.33;;;24.48;;
65477;SDS011;53678;39.642;22.430;2022-11-15T08:46:33;43.88;;;24.67;;
65477;SDS011;53678;39.642;22.430;2022-11-15T08:49:17;40.10;;;23.67;;
65477;SDS011;53678;39.642;22.430;2022-11-15T08:52:02;37.20;;;23.90;;
65477;SDS011;53678;39.642;22.430;2022-11-15T08:54:47;35.55;;;23.48;;
65477;SDS011;53678;39.642;22.430;2022-11-15T08:57:31;39.92;;;24.08;;
65477;SDS011;53678;39.642;22.430;2022-11-15T09:00:16;33.30;;;22.77;;
65477;SDS011;53678;39.642;22.430;2022-11-15T09:03:03;36.25;;;21.65;;
65477;SDS011;53678;39.642;22.430;2022-11-15T09:05:53;35.42;;;22.77;;
65477;SDS011;53678;39.642;22.430;2022-11-15T09:08:41;32.47;;;22.13;;
65477;SDS011;53678;39.642;22.430;2022-11-15T09:11:26;35.72;;;21.48;;
65477;SDS011;53678;39.642;22.430;2022-11-15T09:14:11;38.88;;;21.23;;
65477;SDS011;53678;39.642;22.430;2022-11-15T09:16:56;31.95;;;22.55;;
65477;SDS011;53678;39.642;22.430;2022-11-15T09:19:42;37.85;;;22.50;;
65477;SDS011;53678;39.642;22.430;2022-11-15T09:22:27;32.92;;;20.63;;
65477;SDS011;53678;39.642;22.430;2022-11-15T09:25:12;34.17;;;22.27;;
65477;SDS011;53678;39.642;22.430;2022-11-15T09:27:57;32.40;;;22.20;;
65477;SDS011;53678;39.642;22.430;2022-11-15T09:30:42;33.33;;;21.00;;
65477;SDS011;53678;39.642;22.430;2022-11-15T09:33:26;30.77;;;20.80;;
65477;SDS011;53678;39.642;22.430;2022-11-15T09:36:12;46.00;;;27.65;;
65477;SDS011;53678;39.642;22.430;2022-11-15T09:38:57;47.28;;;26.42;;
65477;SDS011;53678;39.642;22.430;2022-11-15T09:50:49;31.50;;;21.13;;
65477;SDS011;53678;39.642;22.430;2022-11-15T09:53:24;34.88;;;20.23;;
65477;SDS011;53678;39.642;22.430;2022-11-15T09:55:58;33.15;;;21.15;;
65477;SDS011;53678;39.642;22.430;2022-11-15T10:01:06;31.45;;;20.48;;
65477;SDS011;53678;39.642;22.430;2022-11-15T10:03:44;31.60;;;21.70;;
65477;SDS011;53678;39.642;22.430;2022-11-15T10:06:23;32.15;;;21.27;;
65477;SDS011;53678;39.642;22.430;2022-11-15T10:11:35;29.05;;;20.98;;
65477;SDS011;53678;39.642;22.430;2022-11-15T10:14:04;31.23;;;20.40;;
65477;SDS011;53678;39.642;22.430;2022-11-15T10:19:20;31.75;;;20.85;;
65477;SDS011;53678;39.642;22.430;2022-11-15T10:24:37;29.60;;;20.40;;
65477;SDS011;53678;39.642;22.430;2022-11-15T10:27:16;32.22;;;20.15;;
65477;SDS011;53678;39.642;22.430;2022-11-15T10:29:45;32.10;;;19.52;;
65477;SDS011;53678;39.642;22.430;2022-11-15T10:32:13;28.77;;;18.42;;
65477;SDS011;53678;39.642;22.430;2022-11-15T10:34:40;28.10;;;19.08;;
65477;SDS011;53678;39.642;22.430;2022-11-15T10:37:06;26.92;;;17.42;;
65477;SDS011;53678;39.642;22.430;2022-11-15T10:39:33;28.20;;;20.13;;
65477;SDS011;53678;39.642;22.430;2022-11-15T10:42:14;31.63;;;18.30;;
65477;SDS011;53678;39.642;22.430;2022-11-15T10:44:42;29.95;;;17.80;;
65477;SDS011;53678;39.642;22.430;2022-11-15T10:47:29;25.88;;;17.92;;
65477;SDS011;53678;39.642;22.430;2022-11-15T10:52:24;25.50;;;16.92;;
65477;SDS011;53678;39.642;22.430;2022-11-15T10:54:51;25.08;;;16.73;;
65477;SDS011;53678;39.642;22.430;2022-11-15T10:57:38;32.28;;;18.10;;
65477;SDS011;53678;39.642;22.430;2022-11-15T11:00:07;30.48;;;18.23;;
65477;SDS011;53678;39.642;22.430;2022-11-15T11:05:32;28.48;;;18.15;;
65477;SDS011;53678;39.642;22.430;2022-11-15T11:10:57;28.05;;;17.25;;
65477;SDS011;53678;39.642;22.430;2022-11-15T11:16:09;22.85;;;13.98;;
65477;SDS011;53678;39.642;22.430;2022-11-15T11:19:02;22.92;;;15.63;;
65477;SDS011;53678;39.642;22.430;2022-11-15T11:21:51;21.05;;;15.18;;
65477;SDS011;53678;39.642;22.430;2022-11-15T11:24:47;21.98;;;13.98;;
65477;SDS011;53678;39.642;22.430;2022-11-15T11:30:19;24.38;;;15.18;;
65477;SDS011;53678;39.642;22.430;2022-11-15T11:35:43;23.52;;;14.43;;
65477;SDS011;53678;39.642;22.430;2022-11-15T11:47:15;21.67;;;14.45;;
65477;SDS011;53678;39.642;22.430;2022-11-15T11:49:59;21.10;;;13.32;;
65477;SDS011;53678;39.642;22.430;2022-11-15T11:55:20;19.98;;;12.57;;
65477;SDS011;53678;39.642;22.430;2022-11-15T11:58:03;18.85;;;13.40;;
65477;SDS011;53678;39.642;22.430;2022-11-15T12:03:43;19.50;;;12.90;;
65477;SDS011;53678;39.642;22.430;2022-11-15T12:17:36;19.27;;;13.52;;
65477;SDS011;53678;39.642;22.430;2022-11-15T12:20:14;21.33;;;13.80;;
65477;SDS011;53678;39.642;22.430;2022-11-15T12:25:58;19.60;;;12.63;;
65477;SDS011;53678;39.642;22.430;2022-11-15T12:33:46;20.33;;;12.48;;
65477;SDS011;53678;39.642;22.430;2022-11-15T12:41:20;20.25;;;12.50;;
65477;SDS011;53678;39.642;22.430;2022-11-15T12:44:11;18.92;;;12.15;;
65477;SDS011;53678;39.642;22.430;2022-11-15T13:17:45;18.80;;;13.45;;
65477;SDS011;53678;39.642;22.430;2022-11-15T13:28:09;21.75;;;13.63;;
65477;SDS011;53678;39.642;22.430;2022-11-15T13:30:36;18.65;;;13.40;;
65477;SDS011;53678;39.642;22.430;2022-11-15T13:33:24;28.00;;;15.13;;
65477;SDS011;53678;39.642;22.430;2022-11-15T13:35:54;21.20;;;13.27;;
65477;SDS011;53678;39.642;22.430;2022-11-15T13:40:55;23.35;;;13.85;;
65477;SDS011;53678;39.642;22.430;2022-11-15T13:48:52;25.20;;;15.65;;
65477;SDS011;53678;39.642;22.430;2022-11-15T13:54:12;26.13;;;16.92;;
65477;SDS011;53678;39.642;22.430;2022-11-15T13:56:43;22.40;;;14.87;;
65477;SDS011;53678;39.642;22.430;2022-11-15T14:02:13;21.27;;;15.55;;
65477;SDS011;53678;39.642;22.430;2022-11-15T14:04:49;21.85;;;14.75;;
65477;SDS011;53678;39.642;22.430;2022-11-15T14:07:19;22.67;;;15.05;;
65477;SDS011;53678;39.642;22.430;2022-11-15T14:09:47;22.60;;;15.35;;
65477;SDS011;53678;39.642;22.430;2022-11-15T14:12:49;23.17;;;15.77;;
65477;SDS011;53678;39.642;22.430;2022-11-15T14:18:00;24.77;;;15.93;;
65477;SDS011;53678;39.642;22.430;2022-11-15T14:20:37;22.77;;;16.10;;
65477;SDS011;53678;39.642;22.430;2022-11-15T14:23:05;26.80;;;18.25;;
65477;SDS011;53678;39.642;22.430;2022-11-15T14:25:51;25.20;;;16.38;;
65477;SDS011;53678;39.642;22.430;2022-11-15T14:30:48;24.98;;;15.90;;
65477;SDS011;53678;39.642;22.430;2022-11-15T14:36:05;26.83;;;17.65;;
65477;SDS011;53678;39.642;22.430;2022-11-15T14:38:51;25.00;;;17.02;;
65477;SDS011;53678;39.642;22.430;2022-11-15T14:41:23;25.23;;;17.45;;
65477;SDS011;53678;39.642;22.430;2022-11-15T14:43:52;25.23;;;18.08;;
65477;SDS011;53678;39.642;22.430;2022-11-15T14:46:18;29.77;;;17.30;;
65477;SDS011;53678;39.642;22.430;2022-11-15T14:48:44;32.40;;;17.63;;
65477;SDS011;53678;39.642;22.430;2022-11-15T14:51:14;26.65;;;17.98;;
65477;SDS011;53678;39.642;22.430;2022-11-15T14:53:42;26.42;;;17.17;;
65477;SDS011;53678;39.642;22.430;2022-11-15T14:56:12;28.48;;;17.13;;
65477;SDS011;53678;39.642;22.430;2022-11-15T14:58:42;31.40;;;17.92;;
65477;SDS011;53678;39.642;22.430;2022-11-15T15:01:11;28.20;;;17.23;;
65477;SDS011;53678;39.642;22.430;2022-11-15T15:03:39;29.63;;;17.15;;
65477;SDS011;53678;39.642;22.430;2022-11-15T15:06:05;34.55;;;19.67;;
65477;SDS011;53678;39.642;22.430;2022-11-15T15:08:31;31.30;;;19.38;;
65477;SDS011;53678;39.642;22.430;2022-11-15T15:10:57;30.80;;;19.40;;
65477;SDS011;53678;39.642;22.430;2022-11-15T15:13:23;30.65;;;19.27;;
65477;SDS011;53678;39.642;22.430;2022-11-15T15:15:50;29.52;;;18.02;;
65477;SDS011;53678;39.642;22.430;2022-11-15T15:18:17;28.48;;;18.85;;
65477;SDS011;53678;39.642;22.430;2022-11-15T15:20:44;29.65;;;18.25;;
65477;SDS011;53678;39.642;22.430;2022-11-15T15:23:14;32.22;;;19.00;;
65477;SDS011;53678;39.642;22.430;2022-11-15T15:25:42;32.85;;;20.33;;
65477;SDS011;53678;39.642;22.430;2022-11-15T15:28:09;30.20;;;19.02;;
65477;SDS011;53678;39.642;22.430;2022-11-15T15:30:34;30.10;;;18.98;;
65477;SDS011;53678;39.642;22.430;2022-11-15T15:33:00;34.55;;;19.65;;
65477;SDS011;53678;39.642;22.430;2022-11-15T15:35:29;30.90;;;18.27;;
65477;SDS011;53678;39.642;22.430;2022-11-15T15:37:57;32.17;;;18.08;;
65477;SDS011;53678;39.642;22.430;2022-11-15T15:40:24;28.25;;;18.27;;
65477;SDS011;53678;39.642;22.430;2022-11-15T15:42:51;28.58;;;17.23;;
65477;SDS011;53678;39.642;22.430;2022-11-15T15:45:17;31.02;;;17.75;;
65477;SDS011;53678;39.642;22.430;2022-11-15T15:47:44;27.42;;;18.33;;
65477;SDS011;53678;39.642;22.430;2022-11-15T15:52:40;26.83;;;17.35;;
65477;SDS011;53678;39.642;22.430;2022-11-15T15:55:06;30.27;;;18.20;;
65477;SDS011;53678;39.642;22.430;2022-11-15T15:57:32;34.15;;;18.15;;
65477;SDS011;53678;39.642;22.430;2022-11-15T15:59:58;29.00;;;18.25;;
65477;SDS011;53678;39.642;22.430;2022-11-15T16:02:24;29.98;;;17.88;;
65477;SDS011;53678;39.642;22.430;2022-11-15T16:04:50;28.75;;;18.42;;
65477;SDS011;53678;39.642;22.430;2022-11-15T16:07:17;37.10;;;18.98;;
65477;SDS011;53678;39.642;22.430;2022-11-15T16:09:49;28.30;;;18.55;;
65477;SDS011;53678;39.642;22.430;2022-11-15T16:12:32;28.55;;;19.58;;
65477;SDS011;53678;39.642;22.430;2022-11-15T16:15:00;31.75;;;19.17;;
65477;SDS011;53678;39.642;22.430;2022-11-15T16:17:28;28.85;;;18.58;;
65477;SDS011;53678;39.642;22.430;2022-11-15T16:19:59;31.27;;;20.37;;
65477;SDS011;53678;39.642;22.430;2022-11-15T16:22:28;30.38;;;19.42;;
65477;SDS011;53678;39.642;22.430;2022-11-15T16:24:54;29.95;;;19.00;;
65477;SDS011;53678;39.642;22.430;2022-11-15T16:27:20;27.55;;;19.23;;
65477;SDS011;53678;39.642;22.430;2022-11-15T16:29:47;29.20;;;18.50;;
65477;SDS011;53678;39.642;22.430;2022-11-15T16:32:14;33.17;;;18.10;;
65477;SDS011;53678;39.642;22.430;2022-11-15T16:34:41;29.70;;;18.33;;
65477;SDS011;53678;39.642;22.430;2022-11-15T16:37:22;29.98;;;18.25;;
65477;SDS011;53678;39.642;22.430;2022-11-15T16:39:48;30.58;;;18.83;;
65477;SDS011;53678;39.642;22.430;2022-11-15T16:42:15;32.38;;;19.92;;
65477;SDS011;53678;39.642;22.430;2022-11-15T16:44:41;32.97;;;20.33;;
65477;SDS011;53678;39.642;22.430;2022-11-15T16:47:14;35.40;;;20.30;;
65477;SDS011;53678;39.642;22.430;2022-11-15T16:49:43;32.63;;;20.40;;
65477;SDS011;53678;39.642;22.430;2022-11-15T16:52:09;30.63;;;19.67;;
65477;SDS011;53678;39.642;22.430;2022-11-15T16:54:35;42.08;;;25.75;;
65477;SDS011;53678;39.642;22.430;2022-11-15T16:57:01;40.50;;;23.83;;
65477;SDS011;53678;39.642;22.430;2022-11-15T16:59:27;44.88;;;25.95;;
65477;SDS011;53678;39.642;22.430;2022-11-15T17:01:55;40.00;;;22.63;;
65477;SDS011;53678;39.642;22.430;2022-11-15T17:04:21;35.60;;;22.48;;
65477;SDS011;53678;39.642;22.430;2022-11-15T17:06:47;36.55;;;23.75;;
65477;SDS011;53678;39.642;22.430;2022-11-15T17:09:22;38.88;;;24.33;;
65477;SDS011;53678;39.642;22.430;2022-11-15T17:11:49;43.70;;;24.55;;
65477;SDS011;53678;39.642;22.430;2022-11-15T17:14:15;38.92;;;24.55;;
65477;SDS011;53678;39.642;22.430;2022-11-15T17:16:42;40.30;;;22.77;;
65477;SDS011;53678;39.642;22.430;2022-11-15T17:19:15;39.53;;;23.08;;
65477;SDS011;53678;39.642;22.430;2022-11-15T17:21:44;36.40;;;23.58;;
65477;SDS011;53678;39.642;22.430;2022-11-15T17:24:11;35.78;;;23.23;;
65477;SDS011;53678;39.642;22.430;2022-11-15T17:26:38;36.88;;;22.83;;
65477;SDS011;53678;39.642;22.430;2022-11-15T17:29:04;41.88;;;24.52;;
65477;SDS011;53678;39.642;22.430;2022-11-15T17:31:34;34.38;;;22.65;;
65477;SDS011;53678;39.642;22.430;2022-11-15T17:34:01;34.45;;;22.13;;
65477;SDS011;53678;39.642;22.430;2022-11-15T17:36:28;34.45;;;21.98;;
65477;SDS011;53678;39.642;22.430;2022-11-15T17:38:55;36.50;;;21.90;;
65477;SDS011;53678;39.642;22.430;2022-11-15T17:41:21;35.95;;;23.40;;
65477;SDS011;53678;39.642;22.430;2022-11-15T17:43:48;36.90;;;24.48;;
65477;SDS011;53678;39.642;22.430;2022-11-15T17:46:17;34.88;;;22.90;;
65477;SDS011;53678;39.642;22.430;2022-11-15T17:48:45;39.85;;;24.30;;
65477;SDS011;53678;39.642;22.430;2022-11-15T17:51:13;34.70;;;23.63;;
65477;SDS011;53678;39.642;22.430;2022-11-15T17:53:42;35.03;;;22.90;;
65477;SDS011;53678;39.642;22.430;2022-11-15T17:56:10;38.60;;;23.52;;
65477;SDS011;53678;39.642;22.430;2022-11-15T17:58:38;37.40;;;22.83;;
65477;SDS011;53678;39.642;22.430;2022-11-15T18:01:07;38.95;;;22.70;;
65477;SDS011;53678;39.642;22.430;2022-11-15T18:03:40;36.20;;;23.10;;
65477;SDS011;53678;39.642;22.430;2022-11-15T18:06:07;40.88;;;23.88;;
65477;SDS011;53678;39.642;22.430;2022-11-15T18:08:34;49.30;;;27.58;;
65477;SDS011;53678;39.642;22.430;2022-11-15T18:11:02;45.63;;;26.17;;
65477;SDS011;53678;39.642;22.430;2022-11-15T18:13:34;51.65;;;28.05;;
65477;SDS011;53678;39.642;22.430;2022-11-15T18:16:02;49.20;;;25.63;;
65477;SDS011;53678;39.642;22.430;2022-11-15T18:18:30;44.00;;;23.67;;
65477;SDS011;53678;39.642;22.430;2022-11-15T18:21:14;43.03;;;23.30;;
65477;SDS011;53678;39.642;22.430;2022-11-15T18:23:43;39.13;;;23.00;;